METAR-Meldungen aus der Umgebung


Warning: A non-numeric value encountered in /homepages/1/d50633195/htdocs/bad-muskau-wetter/weather28/metar/metarDisplay.php on line 168

Warning: A non-numeric value encountered in /homepages/1/d50633195/htdocs/bad-muskau-wetter/weather28/metar/metarDisplay.php on line 168

Warning: A non-numeric value encountered in /homepages/1/d50633195/htdocs/bad-muskau-wetter/weather28/metar/metarDisplay.php on line 168

Warning: A non-numeric value encountered in /homepages/1/d50633195/htdocs/bad-muskau-wetter/weather28/metar/metarDisplay.php on line 168
   
EDDC - Dresden/Klotzsch, Germany
Entfernung von der Station bis: SW 82 km
Aktualisierung: 19-08-2019 20:20
Klar  
Klar  
   Wind: SSO 13 km/h
Wind: SSO 13 km/h
Temperatur: 21°C
Taupunkt: 15°C
Luftfeuchte: 69%
Luftdruck: 1018 hPa
Sichtbarkeit: More than 10 km
Bewölkung: Klar
EDDC 191820Z 16007KT CAVOK 21/15 Q1018 NOSIG
EPZG - Zielona Gora, Poland
Entfernung von der Station bis: NO 99 km
Aktualisierung: 19-08-2019 20:00
Klar  
Klar  
   Wind: SO 7.4 km/h
Wind: SO 7.4 km/h
Temperatur: 20°C
Taupunkt: 17°C
Luftfeuchte: 83%
Luftdruck: 1018 hPa
Sichtbarkeit: More than 10 km
Bewölkung: Klar
EPZG 191800Z 13004KT CAVOK 20/17 Q1018
ETSH - Holzdorf, Germany
Entfernung von der Station bis: WNW 110 km
Aktualisierung: 19-08-2019 20:20
leicht bewölkt  
leicht bewölkt  
   Wind: NNW 7.4 km/h
Wind: NNW 7.4 km/h
Temperatur: 21°C
Taupunkt: 7°C
Luftfeuchte: 40%
Luftdruck: 1017 hPa
Bewölkt: leicht bewölkt
Sichtbarkeit: More than 10 km
Bewölkung: leicht bewölkt 7000 ft
ETSH 191820Z 33004KT 9999 FEW070 21/07 Q1017 BLU+
EDDB - Berlin/Schonefel, Germany
Entfernung von der Station bis: NW 124 km
Aktualisierung: 19-08-2019 20:20
Klar  
Klar  
   Wind: WNW 5.6 km/h
Wind: WNW 5.6 km/h
Temperatur: 21°C
Taupunkt: 8°C
Luftfeuchte: 43%
Luftdruck: 1017 hPa
Sichtbarkeit: More than 10 km
Bewölkung: Klar
EDDB 191820Z 29003KT CAVOK 21/08 Q1017 NOSIG
EDDT - Berlin/Tegel (fa, Germany
Entfernung von der Station bis: NW 149 km
Aktualisierung: 19-08-2019 20:20
Klar  
Klar  
   Wind: NW 5.6 km/h
Wind: NW 5.6 km/h
Temperatur: 20°C
Taupunkt: 10°C
Luftfeuchte: 53%
Luftdruck: 1017 hPa
Sichtbarkeit: More than 10 km
Bewölkung: Klar
EDDT 191820Z 31003KT CAVOK 20/10 Q1017 NOSIG
LKVO - Vodochody, Czech Republic
Entfernung von der Station bis: S 149 km
Aktualisierung: 19-08-2019 16:00
Nicht aktuell
Teilweise bewölkt  
Teilweise bewölkt  
   Wind: WSW 16.7 km/h
Wind: WSW 16.7 km/h
Temperatur: 22°C
Taupunkt: 17°C
Luftfeuchte: 73%
Luftdruck: 1019 hPa
Bewölkt: Teilweise bewölkt
Sichtbarkeit: More than 10 km
Bewölkung: leicht bewölkt 2600 ft,
Teilweise bewölkt 3500 ft
LKVO 191400Z 25009KT 190V310 9999 FEW026 SCT035 22/17 Q1019
EPWR - Wroclaw/Strachow, Poland
Entfernung von der Station bis: OSO 157 km
Aktualisierung: 19-08-2019 20:00
Teilweise bewölkt  
Teilweise bewölkt  
   Wind: NW 11.1 km/h
Wind: NW 11.1 km/h
Temperatur: 18°C
Taupunkt: 17°C
Luftfeuchte: 94%
Luftdruck: 1019 hPa
Bewölkt: Teilweise bewölkt
Sichtbarkeit: More than 10 km
Bewölkung: Teilweise bewölkt 4500 ft
EPWR 191800Z 32006KT 9999 SCT045 18/17 Q1019
LKKB - Kbely, Czech Republic
Entfernung von der Station bis: S 159 km
Aktualisierung: 19-08-2019 20:00
Stark bewölkt  
Stark bewölkt  
   Wind: variiert 3.7 km/h
Wind: variiert 3.7 km/h
Temperatur: 21°C
Taupunkt: 17°C
Luftfeuchte: 78%
Luftdruck: 1019 hPa
Bewölkt: Stark bewölkt
Sichtbarkeit: More than 10 km
Bewölkung: Teilweise bewölkt 4000 ft,
Stark bewölkt 8000 ft,
Stark bewölkt 10000 ft
LKKB 191800Z VRB02KT 9999 SCT040 BKN080 BKN100 21/17 Q1019 NOSIG
 

Script entwickelt von  Saratoga-weather.org Angepasst für das Template von  Weerstation Leuven